Time;durP1;ratioP1;P1;durP2;ratioP2;P2;SDS_P1;SDS_P2;PMS_P1;PMS_P2;Temp;Humidity;BMP_temperature;BMP_pressure;BME280_temperature;BME280_humidity;BME280_pressure;Samples;Min_cycle;Max_cycle;Signal;HPM_P1;HPM_P2
2022/06/15 00:02:26;;;;;;;1.87;0.75;;;;;;;17.30;54.08;100507.02;2321738;84;25715;-85
2022/06/15 00:06:13;;;;;;;1.02;0.93;;;;;;;17.27;54.20;100505.25;2321997;84;25780;-82
2022/06/15 00:09:34;;;;;;;2.33;0.93;;;;;;;17.23;54.35;100505.70;2321312;84;25513;-86
2022/06/15 00:13:07;;;;;;;1.67;0.90;;;;;;;17.18;54.38;100507.48;2322833;84;25517;-84
2022/06/15 00:16:42;;;;;;;1.87;1.00;;;;;;;17.17;54.41;100511.42;2322613;84;25682;-85
2022/06/15 00:20:08;;;;;;;3.20;1.37;;;;;;;17.14;54.47;100512.30;2321858;84;26041;-88
2022/06/15 00:23:35;;;;;;;3.70;1.02;;;;;;;17.08;54.52;100504.87;2322224;84;25591;-84
2022/06/15 00:27:03;;;;;;;2.95;1.00;;;;;;;17.07;54.65;100510.55;2323481;84;25511;-85
2022/06/15 00:30:24;;;;;;;2.02;0.78;;;;;;;17.07;54.61;100505.28;2300552;84;25746;-85
2022/06/15 00:33:46;;;;;;;4.72;0.60;;;;;;;17.07;54.67;100504.41;2323831;84;25711;-85
2022/06/15 00:37:07;;;;;;;3.50;0.90;;;;;;;17.04;54.67;100505.28;2321141;84;25577;-84
2022/06/15 00:40:29;;;;;;;2.00;1.00;;;;;;;17.00;54.78;100509.67;2323584;80;25670;-83
2022/06/15 00:44:17;;;;;;;5.37;0.90;;;;;;;17.03;54.73;100503.53;2300297;84;25588;-83
2022/06/15 00:47:42;;;;;;;5.05;0.93;;;;;;;17.02;54.90;100499.16;2323527;83;25652;-85
2022/06/15 00:51:16;;;;;;;1.75;0.90;;;;;;;16.96;54.89;100502.66;2323084;85;25632;-82
2022/06/15 00:54:37;;;;;;;5.05;0.93;;;;;;;17.01;55.04;100501.36;2299767;85;25702;-84
2022/06/15 00:58:04;;;;;;;2.75;1.00;;;;;;;17.02;55.06;100502.23;2299931;85;25733;-84
2022/06/15 01:01:29;;;;;;;2.35;0.80;;;;;;;17.00;55.05;100506.16;2323872;85;25663;-82
2022/06/15 01:04:58;;;;;;;3.77;1.25;;;;;;;17.00;55.05;100507.48;2323780;83;25596;-84
2022/06/15 01:09:13;;;;;;;3.05;1.30;;;;;;;16.97;55.08;100497.82;2321906;84;25553;-83
2022/06/15 01:12:40;;;;;;;2.00;1.00;;;;;;;16.95;55.31;100502.23;2319942;84;26302;-83
2022/06/15 01:17:06;;;;;;;1.42;0.88;;;;;;;16.92;55.34;100505.30;2323234;84;25520;-80
2022/06/15 01:21:14;;;;;;;2.72;1.05;;;;;;;16.94;55.44;100508.80;2321712;84;25734;-82
2022/06/15 01:25:06;;;;;;;2.30;1.30;;;;;;;16.92;55.39;100511.45;2321621;82;25829;-83
2022/06/15 01:28:59;;;;;;;4.10;1.47;;;;;;;16.91;55.39;100511.02;2301601;85;25878;-84
2022/06/15 01:32:34;;;;;;;3.02;1.10;;;;;;;16.82;55.55;100504.42;2290667;84;26074;-84
2022/06/15 01:36:20;;;;;;;4.37;1.45;;;;;;;16.74;55.62;100502.21;2303519;85;25829;-81
2022/06/15 01:39:59;;;;;;;3.87;1.30;;;;;;;16.68;55.72;100508.34;2301479;85;25760;-82
2022/06/15 01:43:28;;;;;;;4.10;1.20;;;;;;;16.65;55.75;100500.88;2297062;85;25618;-82
2022/06/15 01:47:05;;;;;;;3.92;1.65;;;;;;;16.61;55.83;100501.77;2299027;85;26196;-82
2022/06/15 01:50:44;;;;;;;2.98;1.70;;;;;;;16.56;55.97;100504.81;2299510;85;25802;-82
2022/06/15 01:54:38;;;;;;;3.20;1.27;;;;;;;16.53;56.02;100504.36;2285992;85;25808;-82
2022/06/15 01:58:10;;;;;;;3.87;1.40;;;;;;;16.49;56.14;100499.54;2278080;85;25902;-83
2022/06/15 02:02:11;;;;;;;4.47;1.55;;;;;;;16.46;56.23;100507.42;2304362;84;25714;-81
2022/06/15 02:05:58;;;;;;;5.15;2.10;;;;;;;16.45;56.25;100504.80;2280166;84;25347;-85
2022/06/15 02:09:37;;;;;;;2.92;1.40;;;;;;;16.45;56.32;100505.67;2322682;85;25598;-85
2022/06/15 02:17:15;;;;;;;3.25;1.62;;;;;;;16.45;56.40;100506.99;2266268;85;25723;-84
2022/06/15 02:20:29;;;;;;;6.85;1.57;;;;;;;16.46;56.46;100503.48;2243930;85;25773;-84
2022/06/15 02:24:00;;;;;;;3.70;1.45;;;;;;;16.42;56.49;100499.09;2271107;85;25743;-85
2022/06/15 02:27:23;;;;;;;2.60;1.32;;;;;;;16.39;56.50;100505.66;2267798;86;25756;-86
2022/06/15 02:30:46;;;;;;;4.67;1.52;;;;;;;16.36;56.60;100505.66;2236989;86;25639;-86
2022/06/15 02:34:11;;;;;;;3.10;1.37;;;;;;;16.31;56.65;100515.30;2262880;85;25601;-85
2022/06/15 02:37:49;;;;;;;5.22;1.20;;;;;;;16.29;56.68;100517.05;2270028;85;25746;-84
2022/06/15 02:41:21;;;;;;;2.65;1.37;;;;;;;16.26;56.77;100513.08;2246621;86;25676;-85
2022/06/15 02:44:48;;;;;;;3.52;1.17;;;;;;;16.21;56.91;100522.73;2236690;85;25651;-81
2022/06/15 02:48:57;;;;;;;6.10;1.60;;;;;;;16.18;56.98;100520.97;2274793;85;25649;-82
2022/06/15 02:52:31;;;;;;;5.35;1.50;;;;;;;16.15;57.05;100531.47;2266116;85;25771;-83
2022/06/15 02:55:55;;;;;;;3.60;1.37;;;;;;;16.16;57.12;100523.14;2223164;87;25730;-83
2022/06/15 02:59:18;;;;;;;3.20;1.30;;;;;;;16.21;57.07;100527.55;2270125;85;25607;-85
2022/06/15 03:02:39;;;;;;;2.55;1.30;;;;;;;16.25;57.13;100520.55;2271647;85;25554;-86
2022/06/15 03:06:01;;;;;;;4.35;1.30;;;;;;;16.27;57.10;100527.58;2262090;85;25947;-84
2022/06/15 03:09:27;;;;;;;6.40;1.95;;;;;;;16.28;57.13;100528.45;2263766;86;26324;-85
2022/06/15 03:12:48;;;;;;;5.62;1.65;;;;;;;16.36;57.13;100528.02;2256494;85;25757;-83
2022/06/15 03:16:11;;;;;;;3.08;1.52;;;;;;;16.41;57.09;100533.31;2298559;84;26115;-85
2022/06/15 03:19:44;;;;;;;2.42;1.32;;;;;;;16.50;57.06;100528.04;2269652;84;25756;-85
2022/06/15 03:23:16;;;;;;;2.77;1.10;;;;;;;16.60;57.01;100531.57;2300364;84;25747;-85
2022/06/15 03:26:41;;;;;;;2.83;1.50;;;;;;;16.67;56.83;100539.91;2262416;85;25623;-86
2022/06/15 03:30:07;;;;;;;2.95;1.30;;;;;;;16.76;56.79;100537.33;2296938;84;25650;-85
2022/06/15 03:33:30;;;;;;;3.92;1.35;;;;;;;16.84;56.75;100538.64;2286313;84;25695;-85
2022/06/15 03:36:53;;;;;;;5.70;1.50;;;;;;;16.95;56.60;100543.05;2303430;84;25637;-86
2022/06/15 03:40:14;;;;;;;2.70;1.55;;;;;;;17.05;56.40;100543.06;2300162;84;31452;-87
2022/06/15 03:43:42;;;;;;;5.33;1.85;;;;;;;17.12;56.22;100540.41;2301569;85;25183;-88
2022/06/15 03:47:06;;;;;;;5.70;1.80;;;;;;;17.14;56.06;100543.91;2278358;84;25195;-84
2022/06/15 03:50:31;;;;;;;11.22;2.25;;;;;;;17.17;55.97;100548.30;2261267;86;25838;-89
2022/06/15 03:54:00;;;;;;;3.92;1.40;;;;;;;17.25;55.90;100544.37;2267822;86;25372;-84
2022/06/15 03:57:22;;;;;;;3.40;1.40;;;;;;;17.29;55.83;100543.48;2279054;84;25627;-85
2022/06/15 04:00:46;;;;;;;4.28;1.30;;;;;;;17.33;55.67;100544.78;2300553;84;25602;-86
2022/06/15 04:04:14;;;;;;;4.70;1.45;;;;;;;17.34;55.54;100540.38;2276880;85;26016;-88
2022/06/15 04:14:56;;;;;;;2.42;1.25;;;;;;;17.50;55.45;100535.97;2298756;84;25582;-87
2022/06/15 04:18:25;;;;;;;2.20;1.35;;;;;;;17.54;55.33;100535.07;2279577;85;25784;-86
2022/06/15 04:21:49;;;;;;;4.83;1.27;;;;;;;17.58;55.31;100529.81;2271481;85;25820;-88
2022/06/15 04:25:17;;;;;;;5.25;1.87;;;;;;;17.61;55.16;100534.17;2282456;85;25661;-86
2022/06/15 04:28:41;;;;;;;3.58;1.52;;;;;;;17.60;55.08;100541.66;2204515;88;25830;-83
2022/06/15 04:32:05;;;;;;;5.28;1.42;;;;;;;17.63;55.01;100542.97;2231503;87;25814;-87
2022/06/15 04:35:26;;;;;;;3.75;1.32;;;;;;;17.65;54.87;100542.09;2228976;88;25788;-87
2022/06/15 04:38:47;;;;;;;3.10;1.40;;;;;;;17.66;54.84;100545.59;2221400;87;25877;-89
2022/06/15 04:42:09;;;;;;;7.62;1.85;;;;;;;17.73;54.84;100545.14;2233634;87;25374;-88
2022/06/15 04:45:33;;;;;;;4.03;1.40;;;;;;;17.77;54.73;100541.19;2230416;87;25710;-89
2022/06/15 04:48:56;;;;;;;5.12;1.45;;;;;;;17.85;54.69;100547.34;2221775;87;25866;-88
2022/06/15 04:52:17;;;;;;;3.67;1.82;;;;;;;17.99;54.64;100550.33;2230600;88;25942;-88
2022/06/15 04:55:38;;;;;;;3.10;1.10;;;;;;;18.06;54.47;100542.86;2246338;86;25741;-85
2022/06/15 04:59:00;;;;;;;2.35;1.12;;;;;;;18.11;54.41;100552.48;2262483;86;26035;-87
2022/06/15 05:02:26;;;;;;;4.47;1.77;;;;;;;18.10;54.30;100550.73;2261508;82;25734;-86
2022/06/15 05:05:57;;;;;;;2.83;1.20;;;;;;;18.16;54.20;100552.03;2263870;87;25720;-88
2022/06/15 05:09:19;;;;;;;5.62;1.30;;;;;;;18.19;54.25;100552.47;2261634;86;26586;-86
2022/06/15 05:12:45;;;;;;;2.77;1.20;;;;;;;18.20;54.35;100549.38;2232551;87;25676;-84
2022/06/15 05:16:07;;;;;;;2.15;1.07;;;;;;;18.21;54.28;100552.00;2257635;86;25734;-86
2022/06/15 05:19:33;;;;;;;3.52;1.20;;;;;;;18.32;54.20;100550.62;2261701;86;25633;-86
2022/06/15 05:22:56;;;;;;;2.67;1.30;;;;;;;18.44;54.25;100556.29;2252785;86;25832;-84
2022/06/15 05:26:26;;;;;;;3.77;1.20;;;;;;;18.55;54.19;100559.28;2280224;85;25381;-83
2022/06/15 05:29:45;;;;;;;3.95;1.67;;;;;;;18.69;54.21;100558.31;2294068;83;25598;-77
2022/06/15 05:33:08;;;;;;;3.83;1.00;;;;;;;18.84;53.92;100563.09;2302839;84;25701;-86
2022/06/15 05:36:36;;;;;;;4.00;1.55;;;;;;;18.95;53.77;100563.00;2303523;85;25677;-89
2022/06/15 05:40:01;;;;;;;3.45;1.27;;;;;;;19.09;53.71;100564.21;2282613;85;25574;-86
2022/06/15 05:43:23;;;;;;;3.15;1.40;;;;;;;19.28;53.48;100557.01;2284141;84;25630;-82
2022/06/15 05:46:46;;;;;;;6.87;1.45;;;;;;;19.42;53.23;100564.80;2279226;85;25864;-88
2022/06/15 05:50:16;;;;;;;5.22;1.55;;;;;;;19.59;53.35;100572.13;2300599;85;25614;-88
2022/06/15 05:53:51;;;;;;;4.22;1.35;;;;;;;19.72;52.94;100568.48;2282792;84;25737;-88
2022/06/15 05:57:20;;;;;;;5.67;1.82;;;;;;;19.88;52.79;100565.65;2301303;84;25583;-91
2022/06/15 06:00:44;;;;;;;9.88;1.70;;;;;;;20.07;52.64;100561.02;2291931;85;25709;-86
2022/06/15 06:04:06;;;;;;;2.58;1.17;;;;;;;20.19;52.70;100567.05;2298835;84;25555;-90
2022/06/15 06:07:31;;;;;;;5.55;2.00;;;;;;;20.38;52.76;100568.98;2295645;84;25744;-89
2022/06/15 06:10:52;;;;;;;4.87;1.65;;;;;;;20.56;52.81;100572.33;2282420;84;25663;-86
2022/06/15 06:14:13;;;;;;;3.40;1.50;;;;;;;20.71;52.60;100575.61;2299777;84;26469;-89
2022/06/15 06:17:34;;;;;;;4.83;1.37;;;;;;;20.91;52.53;100576.63;2297135;84;25986;-89
2022/06/15 06:20:55;;;;;;;5.15;1.30;;;;;;;21.15;52.61;100584.62;2301176;84;25790;-88
2022/06/15 06:24:21;;;;;;;7.90;2.20;;;;;;;21.42;52.42;100579.33;2302423;84;25661;-86
2022/06/15 06:27:42;;;;;;;3.45;1.15;;;;;;;21.62;52.01;100576.78;2304626;85;25676;-90
2022/06/15 06:31:06;;;;;;;3.10;0.95;;;;;;;21.86;51.93;100573.64;2302627;84;25809;-82
2022/06/15 06:34:31;;;;;;;3.40;1.22;;;;;;;22.11;51.49;100574.49;2299059;84;25639;-87
2022/06/15 06:38:02;;;;;;;2.22;0.75;;;;;;;22.34;51.48;100576.23;2292281;85;25657;-89
2022/06/15 06:41:28;;;;;;;4.50;1.07;;;;;;;22.57;50.69;100575.70;2286213;85;25640;-86
2022/06/15 06:44:49;;;;;;;3.15;1.98;;;;;;;22.89;50.47;100582.08;2298078;84;25778;-92
2022/06/15 06:48:16;;;;;;;4.00;1.75;;;;;;;23.15;49.82;100581.91;2297950;84;25694;-74
2022/06/15 06:51:39;;;;;;;7.72;1.70;;;;;;;23.27;49.50;100581.61;2272586;85;25896;-96
2022/06/15 06:55:02;;;;;;;3.17;1.32;;;;;;;23.41;48.84;100590.09;2295408;85;25732;-89
2022/06/15 06:58:26;;;;;;;10.20;1.20;;;;;;;23.51;48.85;100586.74;2291355;85;25679;-91
2022/06/15 07:01:48;;;;;;;7.53;1.65;;;;;;;23.88;48.66;100581.78;2290857;84;25297;-91
2022/06/15 07:05:12;;;;;;;5.47;1.10;;;;;;;24.18;48.13;100576.91;2292369;85;25656;-91
2022/06/15 07:08:38;;;;;;;7.10;1.25;;;;;;;24.50;47.74;100581.31;2295725;84;25595;-86
2022/06/15 07:11:59;;;;;;;5.20;1.37;;;;;;;24.77;46.99;100589.34;2243488;86;25893;-84
2022/06/15 07:15:29;;;;;;;2.23;0.80;;;;;;;24.96;46.58;100582.97;2249703;85;25697;-87
2022/06/15 07:18:51;;;;;;;3.77;0.90;;;;;;;25.20;46.12;100581.31;2187665;89;25703;-89
2022/06/15 07:22:18;;;;;;;3.17;1.00;;;;;;;25.48;45.82;100585.69;2187440;89;25770;-87
2022/06/15 07:25:41;;;;;;;3.77;1.30;;;;;;;25.76;45.30;100581.14;2188245;89;26561;-91
2022/06/15 07:29:03;;;;;;;1.75;0.75;;;;;;;25.83;45.03;100585.36;2184657;89;25275;-89
2022/06/15 07:32:26;;;;;;;4.15;0.90;;;;;;;25.98;44.72;100580.38;2184236;90;25782;-86
2022/06/15 07:35:50;;;;;;;4.75;0.90;;;;;;;26.27;44.29;100582.83;2183753;90;26327;-85
2022/06/15 07:39:15;;;;;;;2.62;0.93;;;;;;;26.58;43.98;100587.88;2186561;89;25780;-93
2022/06/15 07:42:36;;;;;;;5.37;2.08;;;;;;;26.91;43.58;100588.81;2190408;90;26031;-89
2022/06/15 07:45:58;;;;;;;4.17;1.62;;;;;;;27.02;43.03;100589.70;2189607;90;25795;-90
2022/06/15 07:53:14;;;;;;;6.03;1.42;;;;;;;26.85;42.52;100590.39;2153278;91;25746;-91
2022/06/15 07:56:38;;;;;;;3.15;1.50;;;;;;;27.02;42.50;100594.58;2222626;86;25844;-91
2022/06/15 08:00:09;;;;;;;3.42;1.32;;;;;;;27.17;42.34;100590.45;2217452;87;25704;-88
2022/06/15 08:03:35;;;;;;;3.40;1.40;;;;;;;27.36;41.38;100588.31;2236858;87;25796;-88
2022/06/15 08:07:02;;;;;;;4.17;1.12;;;;;;;27.74;41.63;100583.52;2261877;86;25666;-90
2022/06/15 08:10:27;;;;;;;2.12;1.22;;;;;;;28.08;41.25;100581.12;2253845;86;25647;-91
2022/06/15 08:13:52;;;;;;;1.90;1.10;;;;;;;28.35;40.95;100589.27;2264921;86;25903;-94
2022/06/15 08:17:26;;;;;;;2.83;0.93;;;;;;;28.76;40.74;100587.78;2254568;87;26301;-83
2022/06/15 08:20:58;;;;;;;3.67;1.02;;;;;;;28.87;40.00;100581.41;2254278;86;25663;-88
2022/06/15 08:24:21;;;;;;;2.72;1.00;;;;;;;28.71;39.35;100579.94;2242555;87;25893;-96
2022/06/15 08:27:43;;;;;;;6.35;1.10;;;;;;;28.80;39.60;100585.81;2235370;86;25470;-94
2022/06/15 08:31:05;;;;;;;2.40;0.90;;;;;;;29.30;39.68;100588.69;2256335;87;25463;-91
2022/06/15 08:34:36;;;;;;;1.85;0.90;;;;;;;29.57;38.84;100586.88;2249492;86;25606;-91
2022/06/15 08:37:57;;;;;;;4.37;1.00;;;;;;;29.61;38.68;100588.48;2262762;87;25560;-91
2022/06/15 08:41:38;;;;;;;5.20;0.90;;;;;;;29.69;38.23;100586.25;2252856;86;25929;-90
2022/06/15 08:45:38;;;;;;;2.83;0.90;;;;;;;29.93;37.97;100584.55;2237021;86;25638;-91
2022/06/15 08:49:08;;;;;;;2.80;0.60;;;;;;;30.15;36.98;100582.45;2243036;86;26355;-94
2022/06/15 08:52:46;;;;;;;3.25;0.78;;;;;;;30.36;36.43;100581.77;2262221;86;25638;-80
2022/06/15 08:56:37;;;;;;;2.27;0.70;;;;;;;30.00;34.66;100585.95;2265244;84;25806;-80
2022/06/15 09:00:26;;;;;;;2.08;0.75;;;;;;;29.31;33.87;100587.73;2291890;84;25801;-80
2022/06/15 09:04:44;;;;;;;4.58;0.85;;;;;;;28.59;33.97;100579.69;2274010;84;26120;-79
2022/06/15 09:08:54;;;;;;;5.85;0.80;;;;;;;27.91;34.26;100592.17;2284387;84;55577;-79
2022/06/15 09:13:13;;;;;;;1.75;0.93;;;;;;;27.41;34.94;100595.70;2287404;84;26150;-80
2022/06/15 09:17:20;;;;;;;3.22;0.88;;;;;;;27.63;35.29;100600.51;2295962;84;25690;-80
2022/06/15 09:21:42;;;;;;;2.87;1.25;;;;;;;27.61;34.90;100601.50;2228277;87;25837;-80
2022/06/15 09:26:17;;;;;;;;;;;;;;;;;;;;;
2022/06/15 09:30:28;;;;;;;;;;;;;;;;;;;;;
2022/06/15 09:38:16;;;;;;;;;;;;;;;26.49;35.58;100592.25;2084181;93;25790;-80
2022/06/15 09:42:43;;;;;;;3.12;0.88;;;;;;;26.72;35.61;100590.48;2065888;93;26079;-81
2022/06/15 09:47:00;;;;;;;;;;;;;;;;;;;;;
2022/06/15 09:50:47;;;;;;;2.92;1.45;;;;;;;27.04;35.35;100602.56;2080789;93;25789;-81
2022/06/15 09:55:23;;;;;;;;;;;;;;;;;;;;;
2022/06/15 09:59:35;;;;;;;;;;;;;;;;;;;;;
2022/06/15 10:03:22;;;;;;;5.25;1.00;;;;;;;28.12;33.73;100585.44;2026864;95;25707;-81
2022/06/15 10:07:26;;;;;;;2.12;0.80;;;;;;;27.20;33.80;100586.75;2028589;95;25788;-81
2022/06/15 10:11:28;;;;;;;3.50;0.98;;;;;;;27.17;34.46;100587.77;2003562;95;25495;-81
2022/06/15 10:15:24;;;;;;;4.83;0.80;;;;;;;27.39;34.32;100594.89;2063414;93;25565;-82
2022/06/15 10:19:09;;;;;;;2.37;0.80;;;;;;;27.35;34.31;100584.78;2026630;96;25885;-80
2022/06/15 10:23:45;;;;;;;2.37;0.80;;;;;;;27.20;34.29;100588.98;2025501;96;26759;-79
2022/06/15 10:27:53;;;;;;;3.50;0.73;;;;;;;27.40;34.30;100593.47;2021674;96;25799;-80
2022/06/15 10:35:36;;;;;;;1.15;0.75;;;;;;;28.13;33.42;100575.10;1995067;98;25844;-80
2022/06/15 10:39:32;;;;;;;4.22;0.70;;;;;;;28.54;33.69;100570.97;1989530;97;25793;-88
2022/06/15 10:43:35;;;;;;;4.05;0.62;;;;;;;28.52;33.29;100569.72;1992650;98;25937;-80
2022/06/15 10:47:55;;;;;;;;;;;;;;;;;;;;;
2022/06/15 10:51:54;;;;;;;5.03;1.22;;;;;;;28.63;33.15;100572.75;1924740;100;25889;-81
2022/06/15 11:04:20;;;;;;;4.08;0.72;;;;;;;27.60;33.20;100571.18;2015136;96;25837;-81
2022/06/15 11:11:39;;;;;;;8.53;0.95;;;;;;;26.58;34.37;100586.55;1878039;103;26019;-80
2022/06/15 11:20:19;;;;;;;;;;;;;;;;;;;;;
2022/06/15 11:24:14;;;;;;;3.77;1.00;;;;;;;25.49;35.83;100578.12;1819774;106;25520;-82
2022/06/15 11:28:11;;;;;;;5.87;0.75;;;;;;;25.26;36.57;100583.77;1836932;106;26184;-80
2022/06/15 11:36:17;;;;;;;1.92;0.90;;;;;;;25.10;37.31;100577.17;1754652;110;25873;-81
2022/06/15 11:52:55;;;;;;;1.57;0.90;;;;;;;26.18;36.45;100560.92;1729691;111;25904;-83
2022/06/15 11:57:49;;;;;;;3.12;0.85;;;;;;;26.34;36.31;100561.61;1688427;115;25858;-84
2022/06/15 12:07:03;;;;;;;;;;;;;;;;;;;;;
2022/06/15 12:15:49;;;;;;;1.67;0.82;;;;;;;27.05;35.02;100573.05;1723833;112;25953;-81
2022/06/15 12:19:36;;;;;;;2.27;0.80;;;;;;;26.77;34.89;100568.45;1769818;106;25992;-81
2022/06/15 12:28:42;;;;;;;2.27;0.80;;;;;;;26.27;35.77;100554.77;1802766;107;25910;-84
2022/06/15 12:50:57;;;;;;;1.45;0.72;;;;;;;26.42;35.25;100550.61;1919792;100;25946;-81
2022/06/15 12:55:03;;;;;;;2.70;0.60;;;;;;;25.94;35.81;100540.88;1945060;100;25805;-84
2022/06/15 13:03:41;;;;;;;2.62;0.80;;;;;;;26.36;35.82;100544.20;1968511;98;25712;-85
2022/06/15 13:07:49;;;;;;;2.80;0.60;;;;;;;26.33;35.90;100540.30;;;;
2022/06/15 13:11:35;;;;;;;6.17;1.05;;;;;;;26.24;35.90;100550.88;1751457;105;25974;-83
2022/06/15 13:15:45;;;;;;;;;;;;;;;;;;;;;
2022/06/15 13:19:23;;;;;;;1.22;0.62;;;;;;;25.89;36.40;100544.21;1759462;109;26043;-81
2022/06/15 13:23:02;;;;;;;2.75;0.90;;;;;;;25.74;36.72;100543.39;1729886;110;25817;-78
2022/06/15 13:27:21;;;;;;;0.93;0.50;;;;;;;25.66;36.93;100533.86;1754340;110;26878;-82
2022/06/15 13:31:21;;;;;;;5.20;0.80;;;;;;;25.69;36.98;100539.56;1702905;111;26170;-83
2022/06/15 13:35:22;;;;;;;1.98;0.80;;;;;;;26.04;36.82;100536.94;1717549;113;25958;-83
2022/06/15 13:39:05;;;;;;;1.70;0.82;;;;;;;26.72;36.01;100540.52;1777983;103;25907;-82
2022/06/15 13:42:58;;;;;;;1.55;0.85;;;;;;;26.86;35.52;100541.30;1857574;103;26413;-83
2022/06/15 13:46:35;;;;;;;1.95;0.70;;;;;;;26.89;35.23;100541.64;1881734;103;25739;-82
2022/06/15 13:50:31;;;;;;;4.25;0.88;;;;;;;26.87;34.90;100536.84;1882796;103;25886;-81
2022/06/15 13:55:11;;;;;;;3.62;1.20;;;;;;;26.77;34.90;100535.87;1883132;102;25903;-83
2022/06/15 13:59:09;;;;;;;3.40;1.40;;;;;;;26.72;35.13;100532.50;1867350;103;25947;-80
2022/06/15 14:03:24;;;;;;;1.67;0.72;;;;;;;26.62;35.28;100535.15;1850873;103;25893;-78
2022/06/15 14:07:23;;;;;;;4.53;0.68;;;;;;;26.32;35.45;100532.72;1923814;101;25789;-79
2022/06/15 14:11:13;;;;;;;8.15;1.30;;;;;;;26.09;35.28;100526.09;1875155;103;25806;-80
2022/06/15 14:15:14;;;;;;;4.25;1.42;;;;;;;25.83;36.15;100531.08;1903335;103;25777;-80
2022/06/15 14:19:06;;;;;;;2.80;1.55;;;;;;;25.90;36.09;100533.45;1958084;96;26060;-79
2022/06/15 14:22:57;;;;;;;4.83;1.17;;;;;;;25.91;36.12;100528.98;1989659;95;25799;-80
2022/06/15 14:26:30;;;;;;;12.10;4.87;;;;;;;25.80;36.34;100531.19;1956395;99;26311;-79
2022/06/15 14:30:08;;;;;;;7.90;2.67;;;;;;;25.86;36.83;100534.97;1944233;99;25928;-79
2022/06/15 14:33:38;;;;;;;5.20;2.22;;;;;;;25.91;36.97;100538.33;1909658;102;25832;-79
2022/06/15 14:37:12;;;;;;;2.55;0.93;;;;;;;25.87;37.03;100526.89;1912012;102;25828;-78
2022/06/15 14:40:59;;;;;;;;;;;;;;;;;;;;;
2022/06/15 14:44:30;;;;;;;3.77;1.72;;;;;;;25.44;36.60;100522.20;1965145;99;25658;-78
2022/06/15 14:48:09;;;;;;;2.45;1.17;;;;;;;25.22;37.88;100514.09;2033778;94;25913;-78
2022/06/15 14:51:35;;;;;;;1.52;0.60;;;;;;;25.40;38.86;100516.11;2039267;95;25872;-77
2022/06/15 14:55:09;;;;;;;1.60;0.82;;;;;;;25.38;37.51;100515.74;2039968;95;26596;-78
2022/06/15 14:58:41;;;;;;;6.03;1.30;;;;;;;24.89;37.57;100506.28;2045017;94;26505;-78
2022/06/15 15:02:12;;;;;;;3.50;1.47;;;;;;;25.04;39.14;100514.25;2047305;94;25888;-87
2022/06/15 15:05:51;;;;;;;4.28;1.87;;;;;;;25.11;38.24;100505.14;1966121;98;26030;-87
2022/06/15 15:09:37;;;;;;;3.55;0.95;;;;;;;25.13;38.26;100506.41;1991749;97;25798;-87
2022/06/15 15:14:05;;;;;;;3.50;0.80;;;;;;;25.24;39.05;100507.36;1979739;97;25810;-87
2022/06/15 15:18:06;;;;;;;4.35;0.90;;;;;;;25.46;39.27;100503.48;2015164;96;25790;-85
2022/06/15 15:22:00;;;;;;;;;;;;;;;;;;;;;
2022/06/15 15:26:16;;;;;;;;;;;;;;;;;;;;;
2022/06/15 15:34:12;;;;;;;1.60;0.70;;;;;;;25.66;37.57;100491.61;1962063;98;25418;-88
2022/06/15 15:37:48;;;;;;;3.90;0.60;;;;;;;25.61;37.43;100490.42;1970441;98;26421;-88
2022/06/15 15:41:27;;;;;;;2.52;0.70;;;;;;;25.60;37.37;100487.36;1942174;99;26259;-88
2022/06/15 15:44:56;;;;;;;1.70;0.80;;;;;;;25.57;37.27;100484.80;1961450;97;26211;-79
2022/06/15 15:48:32;;;;;;;2.98;0.90;;;;;;;25.59;37.36;100491.44;1973707;98;26772;-80
2022/06/15 15:52:07;;;;;;;1.05;0.72;;;;;;;25.57;36.94;100490.14;1982330;97;26401;-79
2022/06/15 15:56:10;;;;;;;1.05;0.60;;;;;;;25.57;36.92;100495.48;2010602;94;25812;-81
2022/06/15 16:00:32;;;;;;;;;;;;;;;;;;;;;
2022/06/15 16:04:21;;;;;;;3.42;1.27;;;;;;;25.41;37.26;100485.84;1876360;103;25769;-82
2022/06/15 16:08:15;;;;;;;2.08;1.20;;;;;;;25.31;37.50;100488.88;1905064;103;25820;-82
2022/06/15 16:12:10;;;;;;;;;;;;;;;;;;;;;
2022/06/15 16:16:16;;;;;;;;;;;;;;;;;;;;;
2022/06/15 16:20:03;;;;;;;3.42;1.02;;;;;;;24.87;37.71;100500.14;1793445;107;25937;-82
2022/06/15 16:23:44;;;;;;;4.20;0.68;;;;;;;24.70;37.96;100495.38;1758794;112;25862;-80
2022/06/15 16:37:42;;;;;;;3.77;0.80;;;;;;;24.32;38.66;100483.23;1702390;116;27095;-81
2022/06/15 16:42:07;;;;;;;4.60;0.80;;;;;;;24.30;38.96;100482.43;1655940;116;26528;-82
2022/06/15 16:46:32;;;;;;;3.35;0.65;;;;;;;24.31;39.25;100483.30;1667643;116;25931;-81
2022/06/15 16:50:46;;;;;;;;;;;;;;;;;;;;;
2022/06/15 16:54:46;;;;;;;4.62;0.80;;;;;;;24.15;39.09;100474.44;1701351;107;25933;-80
2022/06/15 16:58:36;;;;;;;5.40;0.88;;;;;;;24.12;39.33;100482.98;1708376;114;26008;-81
2022/06/15 17:02:34;;;;;;;;;;;;;;;;;;;;;
2022/06/15 17:06:39;;;;;;;3.37;1.13;;;;;;;23.95;39.47;100474.17;1771579;104;25661;-83
2022/06/15 17:10:01;;;;;;;2.00;0.60;;;;;;;23.93;39.60;100464.91;1767974;110;25915;-82
2022/06/15 17:14:38;;;;;;;3.62;1.10;;;;;;;23.89;39.93;100461.91;1820947;107;25982;-82
2022/06/15 17:18:20;;;;;;;4.20;0.90;;;;;;;24.01;40.02;100464.67;1878599;104;25864;-82
2022/06/15 17:26:18;;;;;;;6.97;1.85;;;;;;;23.86;39.65;100454.04;1802414;106;26023;-81
2022/06/15 17:29:47;;;;;;;3.40;1.02;;;;;;;23.85;39.68;100458.06;1805501;105;25900;-82
2022/06/15 17:33:17;;;;;;;2.33;0.70;;;;;;;23.77;39.56;100460.49;1757249;109;25926;-83
2022/06/15 17:37:24;;;;;;;;;;;;;;;;;;;;;
2022/06/15 17:44:52;;;;;;;2.92;0.65;;;;;;;23.41;39.95;100454.41;1716744;110;25916;-81
2022/06/15 17:48:27;;;;;;;1.00;0.70;;;;;;;23.32;40.27;100453.32;1699041;112;25910;-80
2022/06/15 17:52:17;;;;;;;1.95;0.70;;;;;;;23.32;40.50;100451.99;1755086;105;25932;-81
2022/06/15 17:56:14;;;;;;;2.58;0.82;;;;;;;23.27;40.44;100445.48;1731495;112;25826;-81
2022/06/15 18:00:31;;;;;;;3.67;0.90;;;;;;;23.18;40.67;100452.83;1731054;112;25878;-82
2022/06/15 18:04:17;;;;;;;2.27;1.02;;;;;;;23.02;40.90;100457.25;1760950;112;26000;-82
2022/06/15 18:07:56;;;;;;;6.22;2.15;;;;;;;22.98;40.98;100454.27;1778719;109;26118;-81
2022/06/15 18:11:55;;;;;;;3.42;0.80;;;;;;;22.91;41.06;100463.72;1730806;111;25829;-81
2022/06/15 18:16:05;;;;;;;;;;;;;;;;;;;;;
2022/06/15 18:19:29;;;;;;;3.55;0.88;;;;;;;22.79;41.32;100455.16;1692759;114;25958;-79
2022/06/15 18:23:30;;;;;;;5.77;1.20;;;;;;;22.68;41.41;100457.22;1689578;114;26055;-81
2022/06/15 18:27:18;;;;;;;1.45;1.07;;;;;;;22.66;41.70;100466.13;1711293;115;25921;-80
2022/06/15 18:30:51;;;;;;;2.05;0.85;;;;;;;22.55;41.70;100460.63;1774061;108;26016;-80
2022/06/15 18:34:25;;;;;;;4.67;0.90;;;;;;;22.38;41.88;100458.38;1805342;109;25699;-80
2022/06/15 18:38:26;;;;;;;;;;;;;;;;;;;;;
2022/06/15 18:49:27;;;;;;;1.45;1.10;;;;;;;21.97;42.67;100459.73;1861252;105;25460;-79
2022/06/15 18:53:22;;;;;;;2.08;1.02;;;;;;;21.87;42.84;100460.41;1878432;105;25851;-80
2022/06/15 18:57:01;;;;;;;3.98;1.00;;;;;;;21.83;43.01;100463.55;1868987;105;25820;-79
2022/06/15 19:01:06;;;;;;;1.75;0.90;;;;;;;21.78;43.18;100467.23;1868670;105;25911;-80
2022/06/15 19:04:45;;;;;;;3.50;1.10;;;;;;;21.66;43.42;100473.66;1871516;105;25788;-83
2022/06/15 19:08:27;;;;;;;5.67;1.67;;;;;;;21.57;43.73;100474.73;1872568;105;25973;-80
2022/06/15 19:12:00;;;;;;;1.60;1.17;;;;;;;21.44;44.08;100477.20;1838471;106;25983;-80
2022/06/15 19:16:05;;;;;;;10.65;1.90;;;;;;;21.38;44.41;100478.19;1854760;104;25899;-80
2022/06/15 19:19:29;;;;;;;2.35;1.72;;;;;;;21.26;44.59;100485.00;1864620;105;25905;-81
2022/06/15 19:23:06;;;;;;;3.58;1.87;;;;;;;21.16;44.92;100488.30;1853514;105;25821;-80
2022/06/15 19:30:54;;;;;;;6.60;1.80;;;;;;;21.08;45.26;100492.85;1736885;111;26437;-82
2022/06/15 19:38:40;;;;;;;3.92;1.40;;;;;;;21.04;45.73;100489.84;1751103;108;26018;-82
2022/06/15 19:42:19;;;;;;;3.58;1.70;;;;;;;21.07;45.91;100489.79;1755539;109;26638;-83
2022/06/15 19:45:59;;;;;;;4.55;2.15;;;;;;;21.11;46.07;100491.93;1789398;108;25938;-83
2022/06/15 19:49:40;;;;;;;9.18;1.72;;;;;;;21.06;46.08;100495.09;1749640;111;25928;-84
2022/06/15 19:53:08;;;;;;;3.40;2.27;;;;;;;20.90;46.45;100493.19;1758840;110;26660;-84
2022/06/15 19:56:34;;;;;;;5.22;2.22;;;;;;;20.85;46.50;100493.25;1784704;108;25841;-84